Time;durP1;ratioP1;P1;durP2;ratioP2;P2;SDS_P1;SDS_P2;PMS_P1;PMS_P2;Temp;Humidity;BMP_temperature;BMP_pressure;BME280_temperature;BME280_humidity;BME280_pressure;Samples;Min_cycle;Max_cycle;Signal;HPM_P1;HPM_P2
2021/05/11 00:01:44;;;;;;;1.27;0.80;;;;;;;22.35;53.42;97602.28;5062894;28;20299;-59
2021/05/11 00:04:10;;;;;;;2.30;0.90;;;;;;;22.34;53.78;97587.31;5062129;28;20692;-60
2021/05/11 00:06:36;;;;;;;2.95;0.90;;;;;;;22.36;53.41;97579.16;5064106;28;20199;-61
2021/05/11 00:09:04;;;;;;;1.45;0.95;;;;;;;22.35;53.43;97583.66;5058718;28;20289;-59
2021/05/11 00:11:30;;;;;;;2.45;1.00;;;;;;;22.35;52.86;97585.50;5065391;28;20293;-60
2021/05/11 00:13:56;;;;;;;2.15;0.77;;;;;;;22.35;52.97;97580.16;5061831;28;20206;-60
2021/05/11 00:16:23;;;;;;;2.15;1.10;;;;;;;22.34;53.28;97582.00;5060425;28;20206;-61
2021/05/11 00:18:49;;;;;;;1.17;0.70;;;;;;;22.35;53.51;97574.84;5064378;28;21008;-60
2021/05/11 00:21:15;;;;;;;1.63;1.00;;;;;;;22.35;52.96;97572.19;5065473;28;20536;-57
2021/05/11 00:23:41;;;;;;;2.85;0.82;;;;;;;22.34;53.13;97576.66;5062584;28;20206;-58
2021/05/11 00:26:07;;;;;;;3.80;1.10;;;;;;;22.34;53.50;97571.34;5055619;28;20224;-60
2021/05/11 00:28:33;;;;;;;2.60;1.25;;;;;;;22.32;53.76;97578.69;5061949;28;20218;-60
2021/05/11 00:30:59;;;;;;;2.92;1.05;;;;;;;22.32;53.31;97578.69;5065408;28;20199;-60
2021/05/11 00:33:26;;;;;;;3.35;1.17;;;;;;;22.33;53.72;97579.50;5063307;28;20206;-60
2021/05/11 00:35:52;;;;;;;2.38;0.73;;;;;;;22.31;53.23;97577.00;5063590;28;20203;-59
2021/05/11 00:38:18;;;;;;;2.67;1.05;;;;;;;22.30;53.20;97586.03;5063177;28;20747;-56
2021/05/11 00:40:44;;;;;;;0.98;0.65;;;;;;;22.29;52.97;97581.69;5065698;28;20227;-59
2021/05/11 00:43:11;;;;;;;1.67;1.00;;;;;;;22.31;53.56;97577.00;5058317;28;20293;-60
2021/05/11 00:45:37;;;;;;;1.20;0.90;;;;;;;22.31;53.40;97571.69;5061888;28;20302;-54
2021/05/11 00:48:03;;;;;;;1.00;0.80;;;;;;;22.30;52.85;97563.88;5063013;28;20556;-60
2021/05/11 00:50:30;;;;;;;1.45;0.90;;;;;;;22.29;53.06;97552.41;5062598;28;20215;-58
2021/05/11 00:52:56;;;;;;;3.60;0.95;;;;;;;22.30;53.25;97569.22;5062742;28;20224;-57
2021/05/11 00:55:23;;;;;;;3.78;1.15;;;;;;;22.29;53.37;97567.56;5058530;28;20210;-53
2021/05/11 00:57:49;;;;;;;1.23;0.98;;;;;;;22.28;52.61;97566.75;5061216;28;20216;-60
2021/05/11 01:00:16;;;;;;;2.47;0.98;;;;;;;22.28;53.27;97581.84;5062194;28;20240;-59
2021/05/11 01:02:42;;;;;;;1.92;0.88;;;;;;;22.27;53.17;97585.53;5068038;28;20195;-57
2021/05/11 01:05:09;;;;;;;2.45;1.00;;;;;;;22.29;52.65;97579.03;5063931;28;20293;-59
2021/05/11 01:07:36;;;;;;;2.08;0.90;;;;;;;22.26;53.54;97568.72;5057106;28;20199;-59
2021/05/11 01:10:03;;;;;;;1.27;0.70;;;;;;;22.24;52.60;97549.44;5064529;28;20276;-60
2021/05/11 01:12:30;;;;;;;1.83;0.90;;;;;;;22.24;52.84;97541.44;5060149;28;20202;-60
2021/05/11 01:14:56;;;;;;;1.25;0.70;;;;;;;22.27;53.69;97529.63;5061067;28;20278;-59
2021/05/11 01:17:25;;;;;;;3.10;1.05;;;;;;;22.26;53.40;97512.00;5063580;28;20308;-61
2021/05/11 01:19:53;;;;;;;0.95;0.60;;;;;;;22.25;53.64;97526.28;5056238;28;20806;-59
2021/05/11 01:22:49;;;;;;;2.10;0.93;;;;;;;22.26;53.26;97517.31;5061129;28;20298;-56
2021/05/11 01:25:18;;;;;;;1.73;0.85;;;;;;;22.25;53.27;97505.00;5060782;28;20206;-58
2021/05/11 01:27:59;;;;;;;3.72;0.90;;;;;;;22.23;53.07;97515.00;5062532;28;20221;-63
2021/05/11 01:44:33;;;;;;;1.58;0.95;;;;;;;22.22;54.12;97526.69;5066657;28;20210;-60
2021/05/11 01:50:00;;;;;;;1.25;1.00;;;;;;;22.20;54.12;97515.38;5059270;28;20266;-62
2021/05/11 01:52:35;;;;;;;1.45;0.88;;;;;;;22.20;54.32;97504.72;5066903;28;20190;-59
2021/05/11 02:22:42;;;;;;;1.35;0.60;;;;;;;22.13;54.43;97532.09;5069040;28;20210;-61
2021/05/11 02:25:09;;;;;;;1.00;0.80;;;;;;;22.13;54.52;97521.44;5057996;28;20294;-60
2021/05/11 02:27:38;;;;;;;2.15;0.82;;;;;;;22.13;54.67;97520.59;5059177;28;20307;-59
2021/05/11 02:30:05;;;;;;;1.33;0.75;;;;;;;22.11;54.28;97518.09;5067132;28;20242;-61
2021/05/11 02:32:31;;;;;;;2.95;0.70;;;;;;;22.10;54.64;97519.13;5064637;28;20240;-61
2021/05/11 02:34:57;;;;;;;1.88;0.73;;;;;;;22.09;54.57;97514.81;5066435;28;20210;-60
2021/05/11 02:37:23;;;;;;;1.45;0.70;;;;;;;22.10;54.53;97505.81;5062463;28;20205;-60
2021/05/11 02:39:49;;;;;;;1.52;0.80;;;;;;;22.10;54.65;97491.66;5066513;28;20225;-61
2021/05/11 02:42:15;;;;;;;1.52;0.80;;;;;;;22.09;54.74;97504.16;5062928;28;20202;-60
2021/05/11 02:44:44;;;;;;;0.77;0.75;;;;;;;22.09;54.08;97508.66;5064975;28;20199;-60
2021/05/11 02:47:10;;;;;;;3.30;1.05;;;;;;;22.08;54.24;97523.81;5064720;28;20205;-58
2021/05/11 02:49:40;;;;;;;1.15;0.60;;;;;;;22.09;54.28;97528.09;5062948;28;20305;-56
2021/05/11 02:52:06;;;;;;;1.13;0.90;;;;;;;22.08;54.35;97526.47;5065481;28;20212;-60
2021/05/11 02:54:32;;;;;;;1.63;0.70;;;;;;;22.08;54.64;97518.50;5064892;28;20271;-59
2021/05/11 02:56:58;;;;;;;0.75;0.70;;;;;;;22.09;54.07;97520.13;5061828;28;20205;-58
2021/05/11 02:59:25;;;;;;;1.80;0.70;;;;;;;22.08;54.68;97529.13;5064087;28;20249;-60
2021/05/11 03:01:52;;;;;;;1.48;0.80;;;;;;;22.10;54.23;97515.63;5065193;28;20277;-56
2021/05/11 03:04:18;;;;;;;1.63;0.70;;;;;;;22.08;54.46;97518.50;5065159;28;20844;-55
2021/05/11 03:06:44;;;;;;;1.30;0.60;;;;;;;22.09;54.28;97525.44;5063504;28;20206;-59
2021/05/11 03:09:10;;;;;;;1.77;0.70;;;;;;;22.09;54.82;97516.66;5061738;28;20325;-59
2021/05/11 03:11:36;;;;;;;1.48;0.70;;;;;;;22.07;54.01;97511.50;5067405;28;20370;-57
2021/05/11 03:14:03;;;;;;;1.40;0.68;;;;;;;22.06;54.23;97523.13;5060872;28;20221;-58
2021/05/11 03:16:30;;;;;;;2.67;0.60;;;;;;;22.07;55.09;97514.16;5062911;28;20299;-58
2021/05/11 03:18:57;;;;;;;0.75;0.60;;;;;;;22.07;53.95;97511.50;5064233;28;20235;-58
2021/05/11 03:21:23;;;;;;;1.40;0.70;;;;;;;22.07;54.46;97508.84;5065653;28;20206;-56
2021/05/11 03:23:49;;;;;;;3.90;0.60;;;;;;;22.07;55.24;97514.16;5065139;28;20234;-60
2021/05/11 03:26:15;;;;;;;0.88;0.80;;;;;;;22.06;54.47;97515.16;5058321;28;20828;-57
2021/05/11 03:28:41;;;;;;;1.63;0.80;;;;;;;22.05;54.26;97512.66;5063790;28;20298;-60
2021/05/11 03:31:07;;;;;;;1.92;0.60;;;;;;;22.07;54.01;97508.03;5066438;28;20631;-60
2021/05/11 03:33:34;;;;;;;0.88;0.60;;;;;;;22.09;54.69;97500.69;5060989;28;20206;-60
2021/05/11 03:36:01;;;;;;;4.20;0.90;;;;;;;22.06;54.80;97501.84;5065794;28;20220;-60
2021/05/11 03:38:27;;;;;;;7.40;0.60;;;;;;;22.07;53.96;97484.88;5065212;28;20252;-59
2021/05/11 03:40:54;;;;;;;0.73;0.52;;;;;;;22.07;54.93;97494.72;5059138;28;20576;-60
2021/05/11 03:43:24;;;;;;;1.52;0.80;;;;;;;22.06;54.98;97496.53;5055314;28;20659;-58
2021/05/11 03:45:53;;;;;;;1.33;0.80;;;;;;;22.06;54.98;97483.22;5059098;28;20683;-61
2021/05/11 03:48:19;;;;;;;1.13;0.55;;;;;;;22.06;55.33;97472.56;5065221;28;20203;-58
2021/05/11 03:50:45;;;;;;;2.08;0.73;;;;;;;22.07;54.13;97462.78;5066038;28;20197;-60
2021/05/11 03:53:12;;;;;;;1.75;0.68;;;;;;;22.06;55.17;97472.56;5068617;28;20198;-57
2021/05/11 03:55:38;;;;;;;1.50;0.82;;;;;;;22.05;54.18;97460.28;5059845;28;20215;-60
2021/05/11 03:58:05;;;;;;;1.30;0.80;;;;;;;22.06;54.30;97455.78;5062885;28;20293;-58
2021/05/11 04:00:31;;;;;;;0.85;0.70;;;;;;;22.05;54.40;97462.09;5060616;28;20313;-59
2021/05/11 04:02:57;;;;;;;0.88;0.80;;;;;;;22.05;54.89;97464.78;5064217;28;20198;-59
2021/05/11 04:05:23;;;;;;;0.73;0.70;;;;;;;22.05;55.12;97465.63;5062964;28;20207;-60
2021/05/11 04:07:53;;;;;;;0.82;0.70;;;;;;;22.04;54.88;97490.56;5064339;28;20218;-58
2021/05/11 04:10:28;;;;;;;1.15;0.70;;;;;;;22.03;54.45;97483.56;5063426;28;20317;-60
2021/05/11 04:13:15;;;;;;;1.92;0.75;;;;;;;22.03;55.47;97467.59;5056680;28;20618;-58
2021/05/11 04:18:25;;;;;;;2.95;0.75;;;;;;;22.03;54.42;97459.63;5062526;28;20210;-58
2021/05/11 04:20:51;;;;;;;1.25;0.65;;;;;;;22.03;55.35;97462.28;5064470;28;20222;-60
2021/05/11 04:23:17;;;;;;;0.85;0.60;;;;;;;22.06;54.75;97466.44;5061882;28;20206;-54
2021/05/11 04:25:45;;;;;;;1.70;0.85;;;;;;;22.04;54.56;97469.28;5065346;28;20886;-59
2021/05/11 04:28:12;;;;;;;2.58;0.65;;;;;;;22.04;54.97;97463.94;5059989;28;20206;-57
2021/05/11 04:30:38;;;;;;;0.80;0.80;;;;;;;22.04;54.31;97468.47;5062334;28;20351;-59
2021/05/11 04:33:04;;;;;;;2.75;0.75;;;;;;;22.02;55.41;97463.31;5062570;28;20202;-59
2021/05/11 04:35:30;;;;;;;1.58;0.80;;;;;;;22.03;55.02;97453.47;5058653;28;20210;-59
2021/05/11 04:37:56;;;;;;;3.25;1.00;;;;;;;22.03;54.87;97456.97;5057938;28;20218;-60
2021/05/11 04:40:22;;;;;;;1.58;0.82;;;;;;;22.04;54.16;97453.31;5053777;28;20718;-58
2021/05/11 04:42:49;;;;;;;0.68;0.60;;;;;;;22.04;54.42;97453.31;5059395;28;20195;-58
2021/05/11 04:45:19;;;;;;;1.02;0.73;;;;;;;22.05;54.84;97451.47;5061750;28;20234;-58
2021/05/11 04:47:50;;;;;;;1.38;0.95;;;;;;;22.05;54.55;97464.78;5060381;28;20518;-59
2021/05/11 04:50:18;;;;;;;2.40;1.05;;;;;;;22.03;54.58;97467.59;5064116;28;20847;-59
2021/05/11 04:52:44;;;;;;;2.08;1.00;;;;;;;22.05;54.56;97462.09;5062790;28;20206;-59
2021/05/11 04:55:12;;;;;;;1.73;1.08;;;;;;;22.04;54.37;97463.13;5061078;28;21409;-59
2021/05/11 04:57:38;;;;;;;1.00;0.82;;;;;;;22.04;55.09;97465.78;5064598;28;20198;-59
2021/05/11 05:00:08;;;;;;;2.30;0.90;;;;;;;22.06;54.43;97482.41;5059414;28;20313;-60
2021/05/11 05:02:36;;;;;;;2.50;1.05;;;;;;;22.06;55.31;97501.03;5060879;28;20206;-59
2021/05/11 05:05:02;;;;;;;1.88;1.25;;;;;;;22.07;54.48;97511.50;5065274;28;20199;-59
2021/05/11 05:07:28;;;;;;;1.65;1.13;;;;;;;22.07;54.31;97514.16;5063097;28;20217;-57
2021/05/11 05:09:54;;;;;;;1.00;0.80;;;;;;;22.09;54.69;97503.34;5066476;28;20223;-59
2021/05/11 05:12:21;;;;;;;1.10;1.00;;;;;;;22.10;54.64;97497.84;5058145;28;20199;-59
2021/05/11 05:14:47;;;;;;;1.73;1.30;;;;;;;22.07;53.81;97479.56;5068665;28;20203;-61
2021/05/11 05:17:14;;;;;;;1.25;1.00;;;;;;;22.06;53.59;97472.56;5066621;28;20230;-58
2021/05/11 05:19:40;;;;;;;1.92;1.30;;;;;;;22.07;53.80;97462.78;5066520;28;20342;-59
2021/05/11 05:22:08;;;;;;;1.65;1.10;;;;;;;22.07;53.30;97455.59;5065061;28;20658;-60
2021/05/11 05:24:37;;;;;;;2.03;1.30;;;;;;;22.08;53.57;97446.63;5069201;28;20230;-60
2021/05/11 05:27:14;;;;;;;2.35;1.70;;;;;;;22.08;53.80;97453.75;5066560;28;20210;-59
2021/05/11 05:29:40;;;;;;;2.83;1.33;;;;;;;22.05;52.79;97465.63;5064097;28;20257;-57
2021/05/11 05:32:07;;;;;;;6.60;2.47;;;;;;;22.11;53.50;97480.84;5061278;28;20202;-62
2021/05/11 05:34:34;;;;;;;8.45;2.42;;;;;;;22.15;53.19;97484.00;5067336;28;20206;-58
2021/05/11 05:37:01;;;;;;;32.85;2.47;;;;;;;22.17;54.15;97485.44;5077518;28;20281;-59
2021/05/11 05:39:31;;;;;;;18.92;2.88;;;;;;;22.22;54.66;97481.44;5070594;28;20311;-62
2021/05/11 05:41:57;;;;;;;15.48;2.42;;;;;;;22.26;54.64;97477.38;5073327;28;20616;-59
2021/05/11 05:44:23;;;;;;;26.02;3.47;;;;;;;22.29;54.88;97466.41;5072619;28;20689;-60
2021/05/11 05:46:49;;;;;;;23.15;3.22;;;;;;;22.33;55.02;97467.66;5069888;28;20627;-57
2021/05/11 05:49:16;;;;;;;15.80;2.45;;;;;;;22.39;53.32;97474.13;5069317;28;20224;-58
2021/05/11 05:51:46;;;;;;;14.20;2.83;;;;;;;22.45;53.56;97468.88;5070002;28;20206;-57
2021/05/11 05:54:12;;;;;;;18.30;2.60;;;;;;;22.48;54.33;97459.69;5063972;28;20698;-59
2021/05/11 05:56:38;;;;;;;39.67;3.03;;;;;;;22.50;53.87;97469.16;5066572;28;20281;-60
2021/05/11 05:59:04;;;;;;;20.33;2.38;;;;;;;22.52;54.01;97477.78;5062863;28;20305;-60
2021/05/11 06:01:31;;;;;;;19.17;2.60;;;;;;;22.50;54.50;97497.63;5069888;28;20313;-60
2021/05/11 06:04:07;;;;;;;11.63;2.20;;;;;;;22.54;54.41;97497.06;5064370;28;20392;-60
2021/05/11 06:06:33;;;;;;;21.70;3.55;;;;;;;22.55;54.61;97489.91;5074642;28;20273;-61
2021/05/11 06:09:00;;;;;;;22.50;2.88;;;;;;;22.58;54.32;97486.03;5067450;28;20385;-59
2021/05/11 06:11:36;;;;;;;16.13;2.55;;;;;;;22.59;54.13;97487.72;5069783;28;20230;-60
2021/05/11 06:14:10;;;;;;;20.65;2.40;;;;;;;22.56;54.77;97480.09;5065423;28;20698;-60
2021/05/11 06:19:20;;;;;;;14.77;2.17;;;;;;;22.51;56.32;97465.47;5065854;28;20225;-59
2021/05/11 06:21:46;;;;;;;13.73;2.25;;;;;;;22.59;55.75;97467.22;5066006;28;20195;-60
2021/05/11 06:24:13;;;;;;;11.98;2.72;;;;;;;22.61;55.72;97470.50;5069699;28;20798;-59
2021/05/11 06:26:40;;;;;;;6.65;2.17;;;;;;;22.62;54.55;97450.88;5073260;28;20197;-59
2021/05/11 06:29:08;;;;;;;9.02;2.40;;;;;;;22.62;55.31;97448.19;5068126;28;20666;-61
2021/05/11 06:31:35;;;;;;;11.05;2.20;;;;;;;22.63;54.25;97446.34;5069475;28;20738;-59
2021/05/11 06:34:02;;;;;;;8.00;1.88;;;;;;;22.65;54.14;97436.34;5075615;28;20340;-58
2021/05/11 06:36:29;;;;;;;8.55;2.15;;;;;;;22.65;54.36;97433.66;5064456;28;20207;-59
2021/05/11 06:38:55;;;;;;;7.82;1.92;;;;;;;22.65;53.90;97447.00;5068797;28;20223;-58
2021/05/11 06:41:22;;;;;;;11.23;2.05;;;;;;;22.68;54.46;97459.94;5071646;28;20296;-58
2021/05/11 06:43:53;;;;;;;7.22;2.30;;;;;;;22.71;53.87;97455.06;5068752;28;20198;-59
2021/05/11 06:49:14;;;;;;;10.40;2.05;;;;;;;22.82;54.55;97455.63;5062493;28;20237;-58
2021/05/11 06:54:33;;;;;;;4.88;1.90;;;;;;;22.87;53.54;97470.03;5037621;28;20199;-59
2021/05/11 06:57:00;;;;;;;6.60;1.88;;;;;;;22.90;53.83;97452.84;5069789;28;20881;-60
2021/05/11 06:59:27;;;;;;;8.50;1.65;;;;;;;22.91;53.97;97436.69;5069363;28;20249;-60
2021/05/11 07:01:53;;;;;;;5.45;1.58;;;;;;;22.90;53.17;97429.69;5064043;28;20345;-59
2021/05/11 07:04:19;;;;;;;6.75;1.70;;;;;;;22.91;54.56;97431.34;5070207;28;20234;-58
2021/05/11 07:06:45;;;;;;;5.63;1.70;;;;;;;22.91;54.26;97433.16;5066227;28;20249;-59
2021/05/11 07:09:15;;;;;;;4.80;1.60;;;;;;;22.92;54.15;97424.97;5067997;28;20327;-58
2021/05/11 07:14:26;;;;;;;8.23;2.30;;;;;;;22.85;53.68;97429.41;5065223;28;20207;-56
2021/05/11 07:16:52;;;;;;;15.55;2.45;;;;;;;22.84;54.28;97425.09;5067039;28;20312;-57
2021/05/11 07:19:18;;;;;;;17.45;2.53;;;;;;;22.88;54.48;97423.72;5069384;28;20664;-59
2021/05/11 07:21:44;;;;;;;6.90;1.80;;;;;;;22.94;53.47;97422.13;5067284;28;20233;-58
2021/05/11 07:24:11;;;;;;;17.77;1.77;;;;;;;22.97;53.39;97427.09;5065883;28;20302;-58
2021/05/11 07:26:58;;;;;;;12.55;2.00;;;;;;;23.00;53.89;97432.06;5068376;28;20291;-58
2021/05/11 07:29:38;;;;;;;8.75;1.95;;;;;;;23.01;53.12;97430.19;5068219;28;20710;-60
2021/05/11 07:32:06;;;;;;;9.10;1.90;;;;;;;23.01;54.00;97404.38;5072739;28;20304;-61
2021/05/11 07:34:32;;;;;;;12.10;1.70;;;;;;;23.05;53.10;97403.00;5067155;28;20727;-55
2021/05/11 07:36:59;;;;;;;5.10;1.70;;;;;;;23.08;53.46;97407.13;5069182;28;20300;-59
2021/05/11 07:39:25;;;;;;;5.00;1.70;;;;;;;23.07;53.61;97387.66;5068238;28;20281;-59
2021/05/11 07:41:52;;;;;;;6.63;1.30;;;;;;;23.06;53.03;97378.00;5067834;28;20290;-60
2021/05/11 07:44:18;;;;;;;7.35;1.65;;;;;;;23.08;53.05;97383.13;5071956;28;20229;-55
2021/05/11 07:46:52;;;;;;;5.32;1.58;;;;;;;23.09;54.19;97377.63;5070156;28;20550;-56
2021/05/11 08:03:37;;;;;;;4.38;1.05;;;;;;;23.10;53.87;97402.47;5071826;28;20540;-58
2021/05/11 08:14:39;;;;;;;6.28;1.52;;;;;;;23.09;53.13;97432.78;5075353;28;20272;-56
2021/05/11 08:17:06;;;;;;;8.10;1.40;;;;;;;23.08;52.74;97428.44;5070715;28;20313;-59
2021/05/11 08:27:45;;;;;;;8.90;1.65;;;;;;;23.11;52.69;97401.41;5070441;28;20202;-60
2021/05/11 08:30:13;;;;;;;3.78;1.67;;;;;;;23.10;52.85;97410.44;5067591;28;20222;-60
2021/05/11 08:32:39;;;;;;;6.18;1.40;;;;;;;23.09;52.51;97408.78;5069284;28;20207;-60
2021/05/11 08:35:07;;;;;;;5.93;1.15;;;;;;;23.07;52.46;97395.66;5065235;28;20317;-55
2021/05/11 08:37:34;;;;;;;2.60;1.00;;;;;;;23.08;52.89;97386.66;5066909;28;20211;-61
2021/05/11 08:40:00;;;;;;;5.85;1.65;;;;;;;23.07;52.31;97370.84;5069081;28;20380;-57
2021/05/11 08:42:27;;;;;;;3.22;1.30;;;;;;;22.99;53.08;97349.59;5065150;28;20203;-59
2021/05/11 08:44:53;;;;;;;5.97;1.65;;;;;;;22.95;53.13;97346.50;5068960;28;20209;-60
2021/05/11 08:47:20;;;;;;;4.03;1.55;;;;;;;22.99;52.82;97357.59;5069583;28;20639;-59
2021/05/11 08:49:47;;;;;;;4.13;1.25;;;;;;;23.00;53.23;97367.22;5071093;28;20211;-61
2021/05/11 08:52:20;;;;;;;11.55;1.40;;;;;;;23.03;52.79;97365.03;5069557;28;20264;-60
2021/05/11 08:55:03;;;;;;;5.28;1.40;;;;;;;23.06;53.18;97382.47;5066154;28;20219;-59
2021/05/11 09:08:46;;;;;;;7.70;1.50;;;;;;;23.17;52.31;97421.19;5068530;28;20238;-58
2021/05/11 09:25:20;;;;;;;2.25;1.00;;;;;;;23.13;52.94;97407.38;5012148;28;20414;-61
2021/05/11 09:27:56;;;;;;;2.17;1.10;;;;;;;23.13;52.90;97403.91;5018217;28;20305;-61
2021/05/11 09:30:36;;;;;;;5.55;1.20;;;;;;;23.14;52.41;97401.03;5043773;28;20229;-60
2021/05/11 09:33:12;;;;;;;4.82;0.93;;;;;;;23.15;52.66;97413.38;5072159;28;20222;-58
2021/05/11 09:56:13;;;;;;;7.85;1.35;;;;;;;23.05;52.66;97426.97;5063729;28;20218;-57
2021/05/11 10:39:18;;;;;;;5.53;1.15;;;;;;;22.98;52.55;97385.25;5036073;28;20215;-58
2021/05/11 10:42:03;;;;;;;5.38;1.08;;;;;;;22.97;52.71;97378.31;5075962;28;20281;-58
2021/05/11 10:47:36;;;;;;;4.47;1.15;;;;;;;23.01;52.16;97388.38;5080813;28;20302;-59
2021/05/11 10:50:03;;;;;;;3.47;1.00;;;;;;;22.99;52.79;97395.75;5079152;28;20694;-53
2021/05/11 10:52:38;;;;;;;5.90;1.20;;;;;;;23.01;51.80;97398.22;5078873;28;20194;-57
2021/05/11 10:55:10;;;;;;;2.17;0.75;;;;;;;23.01;52.53;97390.22;5071688;28;20672;-56
2021/05/11 10:57:44;;;;;;;5.90;1.55;;;;;;;23.00;52.75;97389.41;5065394;28;20233;-56
2021/05/11 11:00:39;;;;;;;1.80;1.00;;;;;;;23.04;52.92;97400.50;5072324;28;20407;-54
2021/05/11 11:03:13;;;;;;;2.25;1.02;;;;;;;23.05;52.73;97395.00;5071576;28;20203;-55
2021/05/11 11:05:42;;;;;;;2.00;1.05;;;;;;;23.11;51.95;97404.09;5072258;28;20278;-58
2021/05/11 11:08:31;;;;;;;5.35;1.27;;;;;;;23.05;51.79;97403.00;5068763;28;20206;-55
2021/05/11 11:11:10;;;;;;;2.28;0.82;;;;;;;23.05;51.89;97408.31;5072113;28;20267;-56
2021/05/11 11:13:38;;;;;;;2.95;1.20;;;;;;;23.05;52.42;97407.50;5066171;28;20290;-58
2021/05/11 11:16:05;;;;;;;4.03;0.95;;;;;;;23.06;52.72;97399.31;5071499;28;20289;-57
2021/05/11 11:18:31;;;;;;;3.65;1.10;;;;;;;23.08;52.46;97404.47;5072099;28;20853;-56
2021/05/11 11:21:08;;;;;;;4.97;1.30;;;;;;;23.08;52.46;97391.13;5072195;28;20721;-58
2021/05/11 11:23:43;;;;;;;3.47;1.02;;;;;;;23.06;51.80;97390.47;5071958;28;20202;-55
2021/05/11 11:26:10;;;;;;;2.25;1.02;;;;;;;23.05;51.82;97402.16;5066907;28;20230;-57
2021/05/11 11:28:37;;;;;;;4.88;1.52;;;;;;;23.07;51.86;97386.84;5068271;28;20230;-59
2021/05/11 11:31:20;;;;;;;7.85;1.13;;;;;;;23.06;52.34;97395.81;5070340;28;20298;-57
2021/05/11 11:33:46;;;;;;;3.00;1.10;;;;;;;23.03;52.44;97389.03;5071046;28;20241;-56
2021/05/11 11:36:27;;;;;;;4.22;1.20;;;;;;;23.08;51.77;97391.97;5068393;28;20268;-58
2021/05/11 11:38:56;;;;;;;2.72;1.23;;;;;;;23.08;52.19;97393.81;5069104;28;20751;-59
2021/05/11 11:41:24;;;;;;;1.83;1.00;;;;;;;23.05;51.89;97397.66;5071563;28;20380;-57
2021/05/11 11:43:51;;;;;;;2.33;1.23;;;;;;;23.11;52.44;97411.28;5069910;28;20234;-58
2021/05/11 11:46:24;;;;;;;1.10;0.70;;;;;;;23.11;52.10;97428.09;5069343;28;20198;-56
2021/05/11 11:49:02;;;;;;;2.83;1.10;;;;;;;23.10;52.47;97431.78;5069450;28;20254;-54
2021/05/11 11:51:30;;;;;;;2.80;0.98;;;;;;;23.07;52.15;97424.16;5071809;28;20197;-52
2021/05/11 11:54:08;;;;;;;2.70;1.10;;;;;;;23.09;52.38;97424.78;5070783;28;20253;-54
2021/05/11 11:57:44;;;;;;;2.15;1.00;;;;;;;23.10;52.45;97423.78;5071149;28;20213;-59
2021/05/11 11:59:25;;;;;;;1.75;1.02;;;;;;;23.09;52.69;97420.28;5070802;28;20225;-53
2021/05/11 12:01:56;;;;;;;1.40;0.90;;;;;;;23.07;52.67;97426.81;5071633;28;20226;-57
2021/05/11 12:04:23;;;;;;;1.50;0.90;;;;;;;23.15;51.66;97424.03;5072733;28;20233;-52
2021/05/11 12:06:51;;;;;;;5.38;1.17;;;;;;;23.18;51.26;97420.16;5061773;28;20253;-57
2021/05/11 12:09:19;;;;;;;1.30;0.90;;;;;;;23.13;51.83;97404.72;5068826;28;20328;-56
2021/05/11 12:11:45;;;;;;;2.47;1.00;;;;;;;23.09;52.70;97408.78;5072193;28;20792;-57
2021/05/11 12:14:14;;;;;;;4.80;1.15;;;;;;;23.08;51.74;97415.13;5076485;28;20268;-58
2021/05/11 12:16:45;;;;;;;6.82;1.20;;;;;;;23.12;52.52;97412.94;5066191;28;20685;-59
2021/05/11 12:19:15;;;;;;;4.72;0.90;;;;;;;23.20;52.69;97410.97;5069335;28;20236;-59
2021/05/11 12:21:53;;;;;;;2.47;1.23;;;;;;;23.15;51.83;97402.72;5065172;28;20218;-60
2021/05/11 12:24:23;;;;;;;6.85;1.10;;;;;;;23.16;52.58;97398.19;5071182;28;20331;-53
2021/05/11 12:26:49;;;;;;;14.45;1.38;;;;;;;23.19;52.68;97397.81;5063781;28;20203;-58
2021/05/11 12:29:17;;;;;;;8.43;1.50;;;;;;;23.15;52.51;97418.72;5061550;28;20329;-58
2021/05/11 12:31:45;;;;;;;7.22;0.82;;;;;;;23.12;52.53;97427.06;5071252;28;20249;-61
2021/05/11 12:34:13;;;;;;;7.90;1.63;;;;;;;23.08;52.38;97428.44;5068875;28;20647;-61
2021/05/11 12:36:48;;;;;;;8.40;1.20;;;;;;;23.02;52.53;97422.00;5075814;28;20206;-61
2021/05/11 12:39:21;;;;;;;4.78;1.05;;;;;;;23.00;53.43;97431.19;5070564;28;20272;-61
2021/05/11 12:41:48;;;;;;;2.90;1.02;;;;;;;22.98;53.10;97430.56;5072352;28;20230;-60
2021/05/11 12:44:28;;;;;;;3.63;1.10;;;;;;;22.95;52.45;97430.94;5069666;28;20866;-61
2021/05/11 12:47:01;;;;;;;5.00;1.30;;;;;;;22.92;52.94;97443.63;5062370;28;20203;-61
2021/05/11 12:49:29;;;;;;;15.88;1.92;;;;;;;22.91;52.27;97444.69;5064716;28;20711;-60
2021/05/11 12:51:56;;;;;;;2.53;1.00;;;;;;;22.89;52.86;97437.88;5066104;28;20678;-60
2021/05/11 12:54:29;;;;;;;6.68;1.15;;;;;;;22.84;53.16;97449.06;5072566;28;20218;-59
2021/05/11 12:57:09;;;;;;;8.13;1.55;;;;;;;22.85;52.96;97440.09;5069971;28;20907;-59
2021/05/11 12:59:43;;;;;;;6.70;1.17;;;;;;;22.88;52.72;97437.03;5061228;28;20889;-61
2021/05/11 13:02:21;;;;;;;5.95;1.02;;;;;;;22.86;52.55;97425.72;5067673;28;20266;-59
2021/05/11 13:05:02;;;;;;;6.07;1.45;;;;;;;22.87;52.40;97429.25;5063812;28;20259;-60
2021/05/11 13:26:34;;;;;;;4.47;0.90;;;;;;;22.88;53.02;97477.03;5061894;28;20260;-61
2021/05/11 13:29:04;;;;;;;4.85;0.90;;;;;;;22.87;52.79;97480.69;5066603;28;20251;-60
2021/05/11 13:31:34;;;;;;;5.38;1.10;;;;;;;22.90;51.92;97490.97;5069462;28;20202;-55
2021/05/11 13:34:09;;;;;;;3.78;1.00;;;;;;;22.93;52.81;97489.75;5075954;28;20332;-59
2021/05/11 13:36:37;;;;;;;5.38;1.33;;;;;;;22.95;52.20;97497.56;5082109;28;20272;-59
2021/05/11 13:39:05;;;;;;;4.90;0.77;;;;;;;22.98;52.19;97499.88;5072264;28;20222;-58
2021/05/11 13:41:31;;;;;;;2.50;1.00;;;;;;;23.02;52.32;97514.50;5068856;28;20277;-57
2021/05/11 13:43:57;;;;;;;4.15;0.80;;;;;;;22.99;52.92;97509.53;5061846;28;20745;-56
2021/05/11 13:46:24;;;;;;;1.63;0.70;;;;;;;22.95;52.25;97498.44;5055062;28;20207;-62
2021/05/11 13:48:51;;;;;;;3.80;1.08;;;;;;;22.98;51.89;97513.19;5061847;28;20265;-59
2021/05/11 13:51:18;;;;;;;3.65;0.82;;;;;;;23.01;51.93;97510.97;5060767;28;20306;-59
2021/05/11 13:53:47;;;;;;;3.38;1.00;;;;;;;22.99;52.07;97525.53;5062919;28;20539;-60
2021/05/11 14:04:37;;;;;;;5.15;0.93;;;;;;;22.98;52.87;97518.53;5056186;28;20215;-55
2021/05/11 14:07:04;;;;;;;5.65;1.10;;;;;;;23.01;52.30;97518.97;5063160;28;20632;-59
2021/05/11 14:09:30;;;;;;;3.22;1.00;;;;;;;23.02;52.45;97507.31;5065369;28;20261;-50
2021/05/11 14:11:56;;;;;;;3.88;0.88;;;;;;;22.98;52.66;97507.88;5063343;28;20199;-60
2021/05/11 14:14:23;;;;;;;3.17;1.10;;;;;;;22.96;52.47;97501.91;5058642;28;20241;-57
2021/05/11 14:16:50;;;;;;;2.05;0.90;;;;;;;22.95;53.45;97494.91;5064209;28;20207;-60
2021/05/11 14:19:18;;;;;;;1.33;0.70;;;;;;;22.91;52.95;97497.13;5062988;28;20317;-62
2021/05/11 14:21:45;;;;;;;2.05;0.98;;;;;;;22.96;53.86;97488.56;5063353;28;20747;-62
2021/05/11 14:24:12;;;;;;;7.20;1.00;;;;;;;22.95;53.13;97490.44;5066653;28;20311;-57
2021/05/11 14:26:38;;;;;;;4.88;0.80;;;;;;;22.96;52.57;97493.91;5065992;28;20279;-57
2021/05/11 14:29:04;;;;;;;5.18;1.20;;;;;;;22.96;53.60;97496.56;5065631;28;20214;-57
2021/05/11 14:31:31;;;;;;;2.13;1.00;;;;;;;22.94;53.19;97499.44;5066516;28;20638;-58
2021/05/11 14:33:58;;;;;;;3.72;0.80;;;;;;;22.89;53.89;97494.66;5065310;28;20281;-57
2021/05/11 14:36:24;;;;;;;4.28;0.85;;;;;;;22.92;53.26;97493.47;5063603;28;20211;-56
2021/05/11 14:38:50;;;;;;;3.10;1.13;;;;;;;23.01;53.35;97507.50;5064500;28;20222;-56
2021/05/11 14:41:17;;;;;;;6.75;1.10;;;;;;;22.94;53.20;97502.09;5064305;28;20315;-53
2021/05/11 14:43:43;;;;;;;7.30;1.20;;;;;;;22.96;53.50;97485.91;5058230;28;20203;-60
2021/05/11 14:46:11;;;;;;;4.80;1.27;;;;;;;22.92;54.23;97486.28;5059110;28;20655;-58
2021/05/11 14:48:37;;;;;;;4.95;0.80;;;;;;;22.96;53.62;97496.56;5059668;28;20223;-58
2021/05/11 14:51:07;;;;;;;1.95;1.00;;;;;;;22.95;53.79;97493.09;5062251;28;20977;-57
2021/05/11 14:53:34;;;;;;;4.10;1.45;;;;;;;22.95;54.04;97497.56;5057118;28;20203;-58
2021/05/11 14:56:01;;;;;;;2.40;0.80;;;;;;;22.91;53.81;97487.31;5062868;28;20214;-57
2021/05/11 14:58:27;;;;;;;2.13;0.90;;;;;;;22.94;54.91;97487.94;5060869;28;20203;-56
2021/05/11 15:00:54;;;;;;;4.57;1.00;;;;;;;22.92;54.42;97496.94;5058320;28;20300;-57
2021/05/11 15:03:20;;;;;;;4.20;1.10;;;;;;;22.94;53.70;97503.94;5064190;28;20241;-59
2021/05/11 15:05:46;;;;;;;2.47;0.85;;;;;;;22.95;54.43;97498.44;5062919;28;20385;-54